createdAt,value
2022-08-16T00:00:43.040Z,43.16
2022-08-16T00:03:13.326Z,43.13
2022-08-16T00:04:20.312Z,43.41
2022-08-16T00:06:47.958Z,44.42
2022-08-16T00:08:00.117Z,44.87
2022-08-16T00:10:32.734Z,44.89
2022-08-16T00:11:43.344Z,44.88
2022-08-16T00:12:52.760Z,45.10
2022-08-16T00:14:08.767Z,45.00
2022-08-16T00:15:22.203Z,45.43
2022-08-16T00:17:56.959Z,45.20
2022-08-16T00:19:01.193Z,45.13
2022-08-16T00:21:29.146Z,45.23
2022-08-16T00:22:45.540Z,45.77
2022-08-16T00:23:54.069Z,46.16
2022-08-16T00:25:06.569Z,46.07
2022-08-16T00:26:36.452Z,45.92
2022-08-16T00:28:44.415Z,46.23
2022-08-16T00:30:08.422Z,46.16
2022-08-16T00:31:07.887Z,46.00
2022-08-16T00:33:34.982Z,45.98
2022-08-16T00:36:00.613Z,46.21
2022-08-16T00:38:40.985Z,45.78
2022-08-16T00:39:57.996Z,45.81
2022-08-16T00:41:05.979Z,45.59
2022-08-16T00:42:30.797Z,45.77
2022-08-16T00:44:55.838Z,46.38
2022-08-16T00:47:30.028Z,47.11
2022-08-16T00:49:57.753Z,48.28
2022-08-16T00:52:35.412Z,48.42
2022-08-16T00:53:47.507Z,48.71
2022-08-16T00:54:56.576Z,48.09
2022-08-16T00:57:33.109Z,48.51
2022-08-16T00:58:43.089Z,49.89
2022-08-16T00:59:58.710Z,50.29
2022-08-16T01:02:31.750Z,50.88
2022-08-16T01:03:37.278Z,51.54
2022-08-16T01:05:10.426Z,53.26
2022-08-16T01:06:39.916Z,54.34
2022-08-16T01:07:17.665Z,54.43
2022-08-16T01:08:35.009Z,53.90
2022-08-16T01:10:56.409Z,52.80
2022-08-16T01:13:31.014Z,53.13
2022-08-16T01:17:36.928Z,54.30
2022-08-16T01:20:23.329Z,54.46
2022-08-16T01:23:00.181Z,53.93
2022-08-16T01:24:51.478Z,53.48
2022-08-16T01:25:59.794Z,53.95
2022-08-16T01:28:21.598Z,53.43
2022-08-16T01:30:56.661Z,52.40
2022-08-16T01:33:35.868Z,53.30
2022-08-16T01:36:11.635Z,53.03
2022-08-16T01:37:18.792Z,52.67
2022-08-16T01:38:32.262Z,52.72
2022-08-16T01:41:02.986Z,52.39
2022-08-16T01:42:15.483Z,53.02
2022-08-16T01:44:43.728Z,52.60
2022-08-16T01:45:57.749Z,52.46
2022-08-16T01:47:11.520Z,51.97
2022-08-16T01:48:21.633Z,52.05
2022-08-16T01:49:45.472Z,52.00
2022-08-16T01:51:16.368Z,52.50
2022-08-16T01:53:26.824Z,52.81
2022-08-16T01:54:48.846Z,53.04
2022-08-16T01:57:16.213Z,53.58
2022-08-16T01:58:28.642Z,53.57
2022-08-16T02:00:54.992Z,54.00
2022-08-16T02:03:24.434Z,54.07
2022-08-16T02:04:54.348Z,54.00
2022-08-16T02:05:52.051Z,54.36
2022-08-16T02:07:00.139Z,54.40
2022-08-16T02:08:33.512Z,55.01
2022-08-16T02:10:41.654Z,54.81
2022-08-16T02:11:58.392Z,54.99
2022-08-16T02:13:08.853Z,54.85
2022-08-16T02:14:21.466Z,54.74
2022-08-16T02:15:35.425Z,55.02
2022-08-16T02:16:45.854Z,54.83
2022-08-16T02:19:15.854Z,55.22
2022-08-16T02:20:28.395Z,54.86
2022-08-16T02:22:59.661Z,55.32
2022-08-16T02:24:31.912Z,55.57
2022-08-16T02:26:38.969Z,55.47
2022-08-16T02:27:51.700Z,55.27
2022-08-16T02:29:02.221Z,55.22
2022-08-16T02:30:37.403Z,55.06
2022-08-16T02:32:51.028Z,55.22
2022-08-16T02:35:09.301Z,55.17
2022-08-16T02:37:52.540Z,55.10
2022-08-16T02:38:58.741Z,55.14
2022-08-16T02:40:11.122Z,55.26
2022-08-16T02:41:22.098Z,55.37
2022-08-16T02:42:32.300Z,55.51
2022-08-16T02:44:56.837Z,55.30
2022-08-16T02:47:25.843Z,56.00
2022-08-16T02:48:38.021Z,55.81
2022-08-16T02:49:59.122Z,56.00
2022-08-16T02:51:06.601Z,56.44
2022-08-16T02:52:24.939Z,56.87
2022-08-16T02:53:25.353Z,56.90
2022-08-16T02:54:37.131Z,57.54
2022-08-16T02:55:50.498Z,57.26
2022-08-16T02:56:58.767Z,57.19
2022-08-16T02:59:27.752Z,57.17
2022-08-16T03:01:59.652Z,57.21
2022-08-16T03:05:56.019Z,57.62
2022-08-16T03:08:50.534Z,57.86
2022-08-16T03:09:37.336Z,58.26
2022-08-16T03:13:30.969Z,58.22
2022-08-16T03:15:57.903Z,58.41
2022-08-16T03:20:05.793Z,58.71
2022-08-16T03:21:18.544Z,58.16
2022-08-16T03:22:30.461Z,58.37
2022-08-16T03:23:42.040Z,58.24
2022-08-16T03:24:55.003Z,58.75
2022-08-16T03:26:06.391Z,58.92
2022-08-16T03:27:16.561Z,58.47
2022-08-16T03:28:28.035Z,58.20
2022-08-16T03:30:56.983Z,59.40
2022-08-16T03:32:08.036Z,58.99
2022-08-16T03:36:30.894Z,60.17
2022-08-16T03:37:15.813Z,59.72
2022-08-16T03:38:34.520Z,60.51
2022-08-16T03:39:42.846Z,60.16
2022-08-16T03:40:51.912Z,60.19
2022-08-16T03:43:21.454Z,60.97
2022-08-16T03:44:43.985Z,60.83
2022-08-16T03:47:13.257Z,61.16
2022-08-16T03:49:42.850Z,61.42
2022-08-16T03:50:59.973Z,61.13
2022-08-16T03:54:58.029Z,61.22
2022-08-16T03:56:06.975Z,61.70
2022-08-16T03:58:44.520Z,62.25
2022-08-16T03:59:54.156Z,62.31
2022-08-16T04:02:31.492Z,62.49
2022-08-16T04:03:35.001Z,62.76
2022-08-16T04:06:15.303Z,63.21
2022-08-16T04:08:39.965Z,63.37
2022-08-16T04:09:50.231Z,63.74
2022-08-16T04:14:00.532Z,63.14
2022-08-16T04:16:27.436Z,63.44
2022-08-16T04:18:54.071Z,63.01
2022-08-16T04:23:08.922Z,62.94
2022-08-16T04:25:37.957Z,63.49
2022-08-16T04:28:51.845Z,62.99
2022-08-16T04:33:30.053Z,62.42
2022-08-16T04:34:43.051Z,61.90
2022-08-16T04:37:25.579Z,61.84
2022-08-16T04:39:57.363Z,62.10
2022-08-16T04:42:25.929Z,61.96
2022-08-16T04:44:53.815Z,61.51
2022-08-16T04:50:24.092Z,60.20
2022-08-16T04:53:16.516Z,58.83
2022-08-16T04:55:44.274Z,57.87
2022-08-16T04:59:49.743Z,57.17
2022-08-16T05:04:01.278Z,56.70
2022-08-16T05:06:17.214Z,55.24
2022-08-16T05:10:24.628Z,55.21
2022-08-16T05:11:35.128Z,54.34
2022-08-16T05:12:45.784Z,54.27
2022-08-16T05:13:56.125Z,54.05
2022-08-16T05:15:09.379Z,54.16
2022-08-16T05:17:40.765Z,53.83
2022-08-16T05:20:38.407Z,53.20
2022-08-16T05:23:00.499Z,53.18
2022-08-16T05:25:40.656Z,52.94
2022-08-16T05:29:59.298Z,53.15
2022-08-16T05:30:43.251Z,53.32
2022-08-16T05:33:28.455Z,53.25
2022-08-16T05:34:39.667Z,53.72
2022-08-16T05:35:55.455Z,53.27
2022-08-16T05:37:05.387Z,53.43
2022-08-16T05:38:32.368Z,53.72
2022-08-16T05:39:28.540Z,53.48
2022-08-16T05:40:38.435Z,53.43
2022-08-16T05:43:04.166Z,53.58
2022-08-16T05:45:33.409Z,53.52
2022-08-16T05:50:59.961Z,53.86
2022-08-16T05:52:13.515Z,54.10
2022-08-16T05:56:27.742Z,53.84
2022-08-16T05:57:38.449Z,54.04
2022-08-16T05:58:49.406Z,53.88
2022-08-16T06:01:15.588Z,54.42
2022-08-16T06:03:44.931Z,54.09
2022-08-16T06:07:59.410Z,54.18
2022-08-16T06:10:33.175Z,54.20
2022-08-16T06:11:39.120Z,53.67
2022-08-16T06:14:19.858Z,53.19
2022-08-16T06:15:30.675Z,53.20
2022-08-16T06:17:55.831Z,52.81
2022-08-16T06:19:07.783Z,53.02
2022-08-16T06:22:01.337Z,53.04
2022-08-16T06:24:52.671Z,53.11
2022-08-16T06:25:39.602Z,53.16
2022-08-16T06:29:32.897Z,53.72
2022-08-16T06:30:43.570Z,53.51
2022-08-16T06:33:22.913Z,53.86
2022-08-16T06:34:57.394Z,53.92
2022-08-16T06:35:46.565Z,54.05
2022-08-16T06:38:22.249Z,53.78
2022-08-16T06:39:23.344Z,53.85
2022-08-16T06:42:05.348Z,53.75
2022-08-16T06:44:52.568Z,53.87
2022-08-16T06:46:55.074Z,53.50
2022-08-16T06:50:51.948Z,53.81
2022-08-16T06:52:03.487Z,54.03
2022-08-16T06:56:32.537Z,53.12
2022-08-16T06:57:54.527Z,52.50
2022-08-16T07:01:54.648Z,52.13
2022-08-16T07:04:33.217Z,52.60
2022-08-16T07:07:01.580Z,52.47
2022-08-16T07:08:11.847Z,52.55
2022-08-16T07:10:52.240Z,52.10
2022-08-16T07:13:53.150Z,52.50
2022-08-16T07:15:50.830Z,52.58
2022-08-16T07:21:13.941Z,51.81
2022-08-16T07:22:37.364Z,51.89
2022-08-16T07:26:25.732Z,52.54
2022-08-16T07:27:40.013Z,53.30
2022-08-16T07:30:38.060Z,54.78
2022-08-16T07:32:51.551Z,55.85
2022-08-16T07:35:13.627Z,57.50
2022-08-16T07:39:31.687Z,59.35
2022-08-16T07:42:01.045Z,62.00
2022-08-16T07:43:11.362Z,61.05
2022-08-16T07:44:21.313Z,60.54
2022-08-16T07:45:33.699Z,60.98
2022-08-16T07:47:59.137Z,61.62
2022-08-16T07:49:11.374Z,61.53
2022-08-16T07:50:56.494Z,62.26
2022-08-16T07:52:57.393Z,63.62
2022-08-16T07:54:16.846Z,63.74
2022-08-16T07:56:39.355Z,64.98
2022-08-16T07:58:00.673Z,65.28
2022-08-16T08:00:25.732Z,65.41
2022-08-16T08:02:57.048Z,66.33
2022-08-16T08:05:41.264Z,66.18
2022-08-16T08:08:11.816Z,66.74
2022-08-16T08:09:20.263Z,67.07
2022-08-16T08:11:59.813Z,68.70
2022-08-16T08:12:59.567Z,68.93
2022-08-16T08:14:08.959Z,67.94
2022-08-16T08:15:25.624Z,68.50
2022-08-16T08:16:37.219Z,68.64
2022-08-16T08:19:05.029Z,69.32
2022-08-16T08:22:01.152Z,69.20
2022-08-16T08:25:55.271Z,69.54
2022-08-16T08:28:22.287Z,69.60
2022-08-16T08:31:02.532Z,70.37
2022-08-16T08:33:32.315Z,71.27
2022-08-16T08:36:03.204Z,71.14
2022-08-16T08:38:45.787Z,70.08
2022-08-16T08:39:59.478Z,69.66
2022-08-16T08:41:08.712Z,70.06
2022-08-16T08:42:26.686Z,68.78
2022-08-16T08:44:44.549Z,68.58
2022-08-16T08:45:57.673Z,68.43
2022-08-16T08:48:33.281Z,69.17
2022-08-16T08:49:46.389Z,69.21
2022-08-16T08:52:08.097Z,69.74
2022-08-16T08:54:33.969Z,70.07
2022-08-16T08:58:34.340Z,71.04
2022-08-16T09:01:01.648Z,70.46
2022-08-16T09:04:57.433Z,69.90
2022-08-16T09:06:09.599Z,69.25
2022-08-16T09:08:39.849Z,68.76
2022-08-16T09:10:00.931Z,68.02
2022-08-16T09:12:36.203Z,68.39
2022-08-16T09:13:33.789Z,69.35
2022-08-16T09:16:03.322Z,69.42
2022-08-16T09:17:31.580Z,69.50
2022-08-16T09:18:26.812Z,69.67
2022-08-16T09:20:59.140Z,69.33
2022-08-16T09:22:08.124Z,69.45
2022-08-16T09:24:52.780Z,69.37
2022-08-16T09:27:13.708Z,68.96
2022-08-16T09:30:00.068Z,69.15
2022-08-16T09:32:28.504Z,69.20
2022-08-16T09:33:37.141Z,69.03
2022-08-16T09:34:46.720Z,69.50
2022-08-16T09:35:57.182Z,69.37
2022-08-16T09:37:17.630Z,69.21
2022-08-16T09:39:41.363Z,68.98
2022-08-16T09:40:47.926Z,69.24
2022-08-16T09:42:00.336Z,69.40
2022-08-16T09:43:21.037Z,70.07
2022-08-16T09:45:09.467Z,69.92
2022-08-16T09:45:43.581Z,69.18
2022-08-16T09:46:57.745Z,68.99
2022-08-16T09:48:09.023Z,68.89
2022-08-16T09:49:19.969Z,69.20
2022-08-16T09:50:36.990Z,69.33
2022-08-16T09:51:42.486Z,68.97
2022-08-16T09:52:53.049Z,68.60
2022-08-16T09:54:02.142Z,68.38
2022-08-16T09:56:33.067Z,67.79
2022-08-16T09:57:42.161Z,67.76
2022-08-16T09:59:04.810Z,67.83
2022-08-16T10:00:42.290Z,67.43
2022-08-16T10:01:22.203Z,66.79
2022-08-16T10:04:02.529Z,67.09
2022-08-16T10:04:59.292Z,67.45
2022-08-16T10:06:10.466Z,67.67
2022-08-16T10:07:20.759Z,67.20
2022-08-16T10:08:32.167Z,67.15
2022-08-16T10:09:55.852Z,67.42
2022-08-16T10:12:55.714Z,67.35
2022-08-16T10:13:59.807Z,67.51
2022-08-16T10:16:27.042Z,67.85
2022-08-16T10:19:06.748Z,68.48
2022-08-16T10:23:02.052Z,67.72
2022-08-16T10:24:08.225Z,67.94
2022-08-16T10:27:00.650Z,68.38
2022-08-16T10:27:19.484Z,68.27
2022-08-16T10:29:04.868Z,67.61
2022-08-16T10:30:24.954Z,67.46
2022-08-16T10:32:42.317Z,67.61
2022-08-16T10:33:52.292Z,67.89
2022-08-16T10:35:03.458Z,68.56
2022-08-16T10:36:39.360Z,68.61
2022-08-16T10:37:32.738Z,67.98
2022-08-16T10:38:39.875Z,67.79
2022-08-16T10:39:52.011Z,68.21
2022-08-16T10:41:03.870Z,67.96
2022-08-16T10:43:31.014Z,67.97
2022-08-16T10:45:59.967Z,67.48
2022-08-16T10:48:27.917Z,66.96
2022-08-16T10:52:19.397Z,65.91
2022-08-16T10:58:46.154Z,64.87
2022-08-16T11:01:40.151Z,64.92
2022-08-16T11:05:12.735Z,64.72
2022-08-16T11:06:26.759Z,64.40
2022-08-16T11:09:21.063Z,64.18
2022-08-16T11:14:16.938Z,64.16
2022-08-16T11:15:26.799Z,64.02
2022-08-16T11:19:02.886Z,64.13
2022-08-16T11:19:12.456Z,64.36
2022-08-16T11:21:29.831Z,64.45
2022-08-16T11:22:48.457Z,64.36
2022-08-16T11:23:57.812Z,64.49
2022-08-16T11:26:24.240Z,63.90
2022-08-16T11:27:36.058Z,63.89
2022-08-16T11:31:13.624Z,64.00
2022-08-16T11:32:31.460Z,63.97
2022-08-16T11:33:53.694Z,63.50
2022-08-16T11:35:11.240Z,63.60
2022-08-16T11:37:27.226Z,63.61
2022-08-16T11:40:00.045Z,63.45
2022-08-16T11:42:37.707Z,63.32
2022-08-16T11:43:47.092Z,63.22
2022-08-16T11:46:44.833Z,63.18
2022-08-16T11:47:41.995Z,63.23
2022-08-16T11:48:52.507Z,63.24
2022-08-16T11:50:01.327Z,62.95
2022-08-16T11:51:11.515Z,62.99
2022-08-16T11:53:38.410Z,63.35
2022-08-16T11:56:04.097Z,63.33
2022-08-16T11:57:15.439Z,63.29
2022-08-16T11:58:27.192Z,63.35
2022-08-16T11:59:40.004Z,63.42
2022-08-16T12:00:53.427Z,63.31
2022-08-16T12:03:17.491Z,63.30
2022-08-16T12:05:44.844Z,63.98
2022-08-16T12:08:26.079Z,64.28
2022-08-16T12:09:40.111Z,63.86
2022-08-16T12:10:48.567Z,63.94
2022-08-16T12:12:02.876Z,63.92
2022-08-16T12:14:26.806Z,63.86
2022-08-16T12:16:57.009Z,63.74
2022-08-16T12:19:36.049Z,63.59
2022-08-16T12:22:05.758Z,63.46
2022-08-16T12:23:14.744Z,63.54
2022-08-16T12:25:42.157Z,63.62
2022-08-16T12:28:09.709Z,64.04
2022-08-16T12:29:19.444Z,63.87
2022-08-16T12:30:38.559Z,63.83
2022-08-16T12:33:06.574Z,63.66
2022-08-16T12:34:19.836Z,63.58
2022-08-16T12:35:29.568Z,63.59
2022-08-16T12:37:56.800Z,64.02
2022-08-16T12:40:29.140Z,64.47
2022-08-16T12:43:07.426Z,64.07
2022-08-16T12:44:20.573Z,64.15
2022-08-16T12:45:35.617Z,63.92
2022-08-16T12:48:33.675Z,64.13
2022-08-16T12:49:42.214Z,64.38
2022-08-16T12:50:50.052Z,64.54
2022-08-16T12:52:01.286Z,64.57
2022-08-16T12:54:27.444Z,64.73
2022-08-16T12:55:41.920Z,64.54
2022-08-16T12:58:03.463Z,64.63
2022-08-16T12:59:19.897Z,64.65
2022-08-16T13:00:33.526Z,64.97
2022-08-16T13:03:03.097Z,64.69
2022-08-16T13:04:20.836Z,64.52
2022-08-16T13:06:42.054Z,64.68
2022-08-16T13:09:26.526Z,64.43
2022-08-16T13:12:07.889Z,64.31
2022-08-16T13:16:15.285Z,64.22
2022-08-16T13:17:29.561Z,63.90
2022-08-16T13:18:38.427Z,64.08
2022-08-16T13:20:08.241Z,64.15
2022-08-16T13:22:24.441Z,64.05
2022-08-16T13:24:53.389Z,64.24
2022-08-16T13:28:48.020Z,64.14
2022-08-16T13:29:57.984Z,63.77
2022-08-16T13:31:08.356Z,63.62
2022-08-16T13:32:40.589Z,63.47
2022-08-16T13:34:51.310Z,63.11
2022-08-16T13:36:02.046Z,63.38
2022-08-16T13:37:12.155Z,63.38
2022-08-16T13:38:25.782Z,63.40
2022-08-16T13:39:36.367Z,63.63
2022-08-16T13:42:03.986Z,63.56
2022-08-16T13:43:13.888Z,63.46
2022-08-16T13:44:48.998Z,63.35
2022-08-16T13:45:37.382Z,63.46
2022-08-16T13:46:49.819Z,63.63
2022-08-16T13:49:16.469Z,63.89
2022-08-16T13:50:31.267Z,63.92
2022-08-16T13:51:43.609Z,64.03
2022-08-16T13:52:54.134Z,64.13
2022-08-16T13:55:21.820Z,64.06
2022-08-16T13:58:35.352Z,64.81
2022-08-16T14:00:34.407Z,64.24
2022-08-16T14:03:00.321Z,63.96
2022-08-16T14:04:10.532Z,63.39
2022-08-16T14:05:22.351Z,63.28
2022-08-16T14:07:52.815Z,63.18
2022-08-16T14:10:15.191Z,63.41
2022-08-16T14:12:52.982Z,63.11
2022-08-16T14:14:05.548Z,63.21
2022-08-16T14:16:43.923Z,63.02
2022-08-16T14:19:11.069Z,63.42
2022-08-16T14:21:36.992Z,63.37
2022-08-16T14:24:29.781Z,63.37
2022-08-16T14:25:27.391Z,63.35
2022-08-16T14:27:59.877Z,63.87
2022-08-16T14:29:10.444Z,64.44
2022-08-16T14:30:21.316Z,64.92
2022-08-16T14:31:31.344Z,65.15
2022-08-16T14:32:46.943Z,65.97
2022-08-16T14:35:15.227Z,67.35
2022-08-16T14:37:43.213Z,66.90
2022-08-16T14:40:23.463Z,66.56
2022-08-16T14:42:50.839Z,67.08
2022-08-16T14:44:04.413Z,67.47
2022-08-16T14:45:16.976Z,67.71
2022-08-16T14:46:28.505Z,67.76
2022-08-16T14:47:38.544Z,66.77
2022-08-16T14:48:48.425Z,67.03
2022-08-16T14:49:58.508Z,66.86
2022-08-16T14:51:09.438Z,66.88
2022-08-16T14:53:37.076Z,66.49
2022-08-16T14:56:04.879Z,66.42
2022-08-16T15:00:04.751Z,66.48
2022-08-16T15:02:34.480Z,66.52
2022-08-16T15:06:23.469Z,66.73
2022-08-16T15:08:49.272Z,66.83
2022-08-16T15:13:12.046Z,67.24
2022-08-16T15:15:45.340Z,67.44
2022-08-16T15:18:14.067Z,67.48
2022-08-16T15:22:19.046Z,68.16
2022-08-16T15:23:33.849Z,68.04
2022-08-16T15:26:02.845Z,68.77
2022-08-16T15:27:10.716Z,68.64
2022-08-16T15:29:35.996Z,69.76
2022-08-16T15:30:57.176Z,70.08
2022-08-16T15:32:00.962Z,69.99
2022-08-16T15:33:16.051Z,70.13
2022-08-16T15:35:44.002Z,69.52
2022-08-16T15:36:54.472Z,69.66
2022-08-16T15:39:31.814Z,69.62
2022-08-16T15:40:35.898Z,69.75
2022-08-16T15:43:07.313Z,69.74
2022-08-16T15:49:17.027Z,71.17
2022-08-16T15:51:44.839Z,71.82
2022-08-16T15:54:29.179Z,71.60
2022-08-16T15:58:35.669Z,70.73
2022-08-16T16:00:53.925Z,68.85
2022-08-16T16:04:48.849Z,67.57
2022-08-16T16:06:03.179Z,67.61
2022-08-16T16:07:14.110Z,67.06
2022-08-16T16:08:28.549Z,67.00
2022-08-16T16:09:38.673Z,67.34
2022-08-16T16:12:34.075Z,67.50
2022-08-16T16:14:33.507Z,67.72
2022-08-16T16:18:29.518Z,68.17
2022-08-16T16:20:57.505Z,68.99
2022-08-16T16:23:41.272Z,69.03
2022-08-16T16:26:07.165Z,69.08
2022-08-16T16:27:17.254Z,69.17
2022-08-16T16:29:46.400Z,69.05
2022-08-16T16:32:12.255Z,69.25
2022-08-16T16:34:52.015Z,69.84
2022-08-16T16:36:03.133Z,70.14
2022-08-16T16:37:15.782Z,70.40
2022-08-16T16:39:44.281Z,69.94
2022-08-16T16:40:56.499Z,69.85
2022-08-16T16:43:26.014Z,70.87
2022-08-16T16:44:37.302Z,71.19
2022-08-16T16:45:44.916Z,71.41
2022-08-16T16:48:12.815Z,71.89
2022-08-16T16:50:38.872Z,71.47
2022-08-16T16:54:32.322Z,70.95
2022-08-16T16:56:59.238Z,70.93
2022-08-16T16:58:53.358Z,71.05
2022-08-16T16:59:55.947Z,70.45
2022-08-16T17:03:53.838Z,68.84
2022-08-16T17:06:18.630Z,68.39
2022-08-16T17:08:55.967Z,68.15
2022-08-16T17:11:38.140Z,68.38
2022-08-16T17:12:50.657Z,68.81
2022-08-16T17:14:02.812Z,68.64
2022-08-16T17:15:11.968Z,69.23
2022-08-16T17:17:59.654Z,69.80
2022-08-16T17:20:22.346Z,69.80
2022-08-16T17:22:55.840Z,70.49
2022-08-16T17:26:48.970Z,71.49
2022-08-16T17:29:13.453Z,71.47
2022-08-16T17:33:13.324Z,70.90
2022-08-16T17:35:44.095Z,70.28
2022-08-16T17:38:39.320Z,70.71
2022-08-16T17:39:54.810Z,69.83
2022-08-16T17:40:58.592Z,69.90
2022-08-16T17:42:05.287Z,70.15
2022-08-16T17:44:34.682Z,69.96
2022-08-16T17:45:45.091Z,70.07
2022-08-16T17:48:11.045Z,70.68
2022-08-16T17:50:36.584Z,70.21
2022-08-16T17:51:46.397Z,69.50
2022-08-16T17:54:20.316Z,69.16
2022-08-16T17:56:55.289Z,70.54
2022-08-16T18:00:48.864Z,70.24
2022-08-16T18:03:18.077Z,69.92
2022-08-16T18:05:56.476Z,67.99
2022-08-16T18:08:21.830Z,68.85
2022-08-16T18:09:33.747Z,69.60
2022-08-16T18:12:44.839Z,70.24
2022-08-16T18:13:33.971Z,70.45
2022-08-16T18:15:59.146Z,69.91
2022-08-16T18:18:26.225Z,69.47
2022-08-16T18:22:37.181Z,70.11
2022-08-16T18:23:48.180Z,69.69
2022-08-16T18:24:58.944Z,69.75
2022-08-16T18:26:08.216Z,69.93
2022-08-16T18:27:25.177Z,70.21
2022-08-16T18:29:52.142Z,70.62
2022-08-16T18:31:05.449Z,70.77
2022-08-16T18:32:16.668Z,70.72
2022-08-16T18:34:44.420Z,70.18
2022-08-16T18:37:10.897Z,69.74
2022-08-16T18:41:04.138Z,68.63
2022-08-16T18:42:17.814Z,68.86
2022-08-16T18:44:14.240Z,68.94
2022-08-16T18:45:57.086Z,69.22
2022-08-16T18:47:09.065Z,69.50
2022-08-16T18:49:37.265Z,69.84
2022-08-16T18:51:03.846Z,69.98
2022-08-16T18:53:19.482Z,70.72
2022-08-16T18:54:30.342Z,70.97
2022-08-16T18:56:57.341Z,71.14
2022-08-16T18:59:21.955Z,70.56
2022-08-16T19:02:06.017Z,70.02
2022-08-16T19:04:55.388Z,69.19
2022-08-16T19:09:50.502Z,68.26
2022-08-16T19:12:38.740Z,68.36
2022-08-16T19:14:58.123Z,69.35
2022-08-16T19:16:07.950Z,68.94
2022-08-16T19:18:36.376Z,68.86
2022-08-16T19:19:44.415Z,69.30
2022-08-16T19:21:00.152Z,69.64
2022-08-16T19:22:09.429Z,69.38
2022-08-16T19:24:37.366Z,70.01
2022-08-16T19:41:46.074Z,70.73
2022-08-16T19:44:10.723Z,70.86
2022-08-16T19:46:49.376Z,70.61
2022-08-16T19:49:17.549Z,70.03
2022-08-16T19:50:35.875Z,69.96
2022-08-16T19:53:13.097Z,68.62
2022-08-16T19:55:38.886Z,68.81
2022-08-16T19:58:16.749Z,68.81
2022-08-16T19:59:40.502Z,69.40
2022-08-16T20:01:53.242Z,69.64
2022-08-16T20:04:22.043Z,69.59
2022-08-16T20:06:49.242Z,70.38
2022-08-16T20:09:28.085Z,70.51
2022-08-16T20:10:39.183Z,69.83
2022-08-16T20:11:52.529Z,69.47
2022-08-16T20:13:02.847Z,69.22
2022-08-16T20:14:25.786Z,69.42
2022-08-16T20:15:29.296Z,69.28
2022-08-16T20:17:54.362Z,68.81
2022-08-16T20:20:22.722Z,69.15
2022-08-16T20:24:33.652Z,69.64
2022-08-16T20:25:30.421Z,69.61
2022-08-16T20:26:41.964Z,69.69
2022-08-16T20:27:52.135Z,69.77
2022-08-16T20:29:01.371Z,69.89
2022-08-16T20:30:14.421Z,70.18
2022-08-16T20:31:24.654Z,69.94
2022-08-16T20:33:50.452Z,70.25
2022-08-16T20:35:00.664Z,70.18
2022-08-16T20:37:25.124Z,70.06
2022-08-16T20:39:52.607Z,69.70
2022-08-16T20:44:08.095Z,69.36
2022-08-16T20:45:21.292Z,69.46
2022-08-16T20:46:31.624Z,68.59
2022-08-16T20:47:41.762Z,68.82
2022-08-16T20:48:51.951Z,69.17
2022-08-16T20:50:01.501Z,68.88
2022-08-16T20:52:28.127Z,69.44
2022-08-16T20:53:41.580Z,69.58
2022-08-16T20:54:51.970Z,69.67
2022-08-16T20:56:00.940Z,69.81
2022-08-16T20:58:26.173Z,69.88
2022-08-16T20:59:35.863Z,69.84
2022-08-16T21:02:00.290Z,70.08
2022-08-16T21:04:29.104Z,70.66
2022-08-16T21:07:07.908Z,70.02
2022-08-16T21:09:34.631Z,69.57
2022-08-16T21:12:12.948Z,69.03
2022-08-16T21:14:56.071Z,68.38
2022-08-16T21:17:21.069Z,68.31
2022-08-16T21:18:29.904Z,68.60
2022-08-16T21:19:39.612Z,68.30
2022-08-16T21:20:49.932Z,68.34
2022-08-16T21:22:15.206Z,68.28
2022-08-16T21:23:25.560Z,68.44
2022-08-16T21:25:59.329Z,68.20
2022-08-16T21:27:02.728Z,68.31
2022-08-16T21:28:40.101Z,68.02
2022-08-16T21:30:41.328Z,67.98
2022-08-16T21:31:50.748Z,67.90
2022-08-16T21:34:21.073Z,68.19
2022-08-16T21:35:29.977Z,68.06
2022-08-16T21:38:00.206Z,67.88
2022-08-16T21:44:39.035Z,68.74
2022-08-16T21:45:54.861Z,67.96
2022-08-16T21:47:00.882Z,67.89
2022-08-16T21:48:10.692Z,68.10
2022-08-16T21:50:35.562Z,68.35
2022-08-16T21:53:09.826Z,68.04
2022-08-16T21:57:10.113Z,67.62
2022-08-16T21:58:16.756Z,67.46
2022-08-16T22:00:42.230Z,67.52
2022-08-16T22:03:11.401Z,67.24
2022-08-16T22:05:59.931Z,67.21
2022-08-16T22:08:16.476Z,67.28
2022-08-16T22:09:27.275Z,67.28
2022-08-16T22:11:06.449Z,67.16
2022-08-16T22:11:50.079Z,67.13
2022-08-16T22:14:15.282Z,66.96
2022-08-16T22:15:26.908Z,67.10
2022-08-16T22:17:56.163Z,67.25
2022-08-16T22:20:22.658Z,67.25
2022-08-16T22:24:26.271Z,67.10
2022-08-16T22:25:36.645Z,67.20
2022-08-16T22:26:46.044Z,67.26
2022-08-16T22:27:56.533Z,67.05
2022-08-16T22:30:24.246Z,67.23
2022-08-16T22:31:33.934Z,66.85
2022-08-16T22:32:45.560Z,66.84
2022-08-16T22:33:56.328Z,67.00
2022-08-16T22:35:11.596Z,66.65
2022-08-16T22:37:37.032Z,66.80
2022-08-16T22:38:54.016Z,67.01
2022-08-16T22:39:58.557Z,67.01
2022-08-16T22:41:09.108Z,66.77
2022-08-16T22:43:33.544Z,66.77
2022-08-16T22:45:59.354Z,66.91
2022-08-16T22:48:39.397Z,66.76
2022-08-16T22:49:49.065Z,66.50
2022-08-16T22:50:58.414Z,66.38
2022-08-16T22:53:26.585Z,66.19
2022-08-16T22:55:52.765Z,66.37
2022-08-16T22:58:36.363Z,66.31
2022-08-16T22:59:44.233Z,66.12
2022-08-16T23:00:53.866Z,66.44
2022-08-16T23:03:23.109Z,66.45
2022-08-16T23:05:50.587Z,66.26
2022-08-16T23:08:38.115Z,66.20
2022-08-16T23:09:43.280Z,66.10
2022-08-16T23:10:53.340Z,66.30
2022-08-16T23:13:22.162Z,66.23
2022-08-16T23:14:32.676Z,66.26
2022-08-16T23:16:58.272Z,66.29
2022-08-16T23:18:08.462Z,66.17
2022-08-16T23:19:17.949Z,66.19
2022-08-16T23:20:29.923Z,66.32
2022-08-16T23:21:43.788Z,66.20
2022-08-16T23:24:15.465Z,66.06
2022-08-16T23:25:32.476Z,66.17
2022-08-16T23:27:59.158Z,66.21
2022-08-16T23:29:15.635Z,66.11
2022-08-16T23:33:17.935Z,66.76
2022-08-16T23:35:47.841Z,66.56
2022-08-16T23:39:43.767Z,66.54
2022-08-16T23:40:54.276Z,66.47
2022-08-16T23:42:14.075Z,66.31
2022-08-16T23:44:57.833Z,66.57
2022-08-16T23:47:18.839Z,66.47
2022-08-16T23:50:00.130Z,66.51
2022-08-16T23:53:45.142Z,66.56
2022-08-16T23:54:54.201Z,66.95
2022-08-16T23:57:21.387Z,67.21
2022-08-16T23:59:53.641Z,67.25
